sensor_id;sensor_type;location;lat;lon;timestamp;temperature;humidity
73572;DHT22;61854;48.510;-2.770;2023-06-19T00:01:17;17.60;98.60
73572;DHT22;61854;48.510;-2.770;2023-06-19T00:03:42;17.60;98.50
73572;DHT22;61854;48.510;-2.770;2023-06-19T00:06:08;17.60;98.60
73572;DHT22;61854;48.510;-2.770;2023-06-19T00:08:34;17.60;98.70
73572;DHT22;61854;48.510;-2.770;2023-06-19T00:10:59;17.60;98.90
73572;DHT22;61854;48.510;-2.770;2023-06-19T00:13:25;17.60;98.90
73572;DHT22;61854;48.510;-2.770;2023-06-19T00:15:50;17.60;99.00
73572;DHT22;61854;48.510;-2.770;2023-06-19T00:18:16;17.60;99.10
73572;DHT22;61854;48.510;-2.770;2023-06-19T00:20:43;17.60;99.20
73572;DHT22;61854;48.510;-2.770;2023-06-19T00:23:11;17.60;99.30
73572;DHT22;61854;48.510;-2.770;2023-06-19T00:25:40;17.60;99.40
73572;DHT22;61854;48.510;-2.770;2023-06-19T00:28:05;17.60;99.50
73572;DHT22;61854;48.510;-2.770;2023-06-19T00:30:37;17.60;99.50
73572;DHT22;61854;48.510;-2.770;2023-06-19T00:33:02;17.50;99.60
73572;DHT22;61854;48.510;-2.770;2023-06-19T00:35:28;17.50;99.70
73572;DHT22;61854;48.510;-2.770;2023-06-19T00:37:56;17.50;99.60
73572;DHT22;61854;48.510;-2.770;2023-06-19T00:40:29;17.50;99.70
73572;DHT22;61854;48.510;-2.770;2023-06-19T00:42:55;17.50;99.70
73572;DHT22;61854;48.510;-2.770;2023-06-19T00:45:21;17.40;99.80
73572;DHT22;61854;48.510;-2.770;2023-06-19T00:47:46;17.50;99.80
73572;DHT22;61854;48.510;-2.770;2023-06-19T00:50:12;17.40;99.70
73572;DHT22;61854;48.510;-2.770;2023-06-19T00:52:37;17.40;99.90
73572;DHT22;61854;48.510;-2.770;2023-06-19T00:55:03;17.50;99.90
73572;DHT22;61854;48.510;-2.770;2023-06-19T00:57:29;17.40;99.90
73572;DHT22;61854;48.510;-2.770;2023-06-19T00:59:55;17.40;99.90
73572;DHT22;61854;48.510;-2.770;2023-06-19T01:02:21;17.40;99.90
73572;DHT22;61854;48.510;-2.770;2023-06-19T01:04:52;17.40;99.90
73572;DHT22;61854;48.510;-2.770;2023-06-19T01:07:19;17.40;99.90
73572;DHT22;61854;48.510;-2.770;2023-06-19T01:09:48;17.40;99.90
73572;DHT22;61854;48.510;-2.770;2023-06-19T01:12:24;17.40;99.90
73572;DHT22;61854;48.510;-2.770;2023-06-19T01:14:54;17.40;99.90
73572;DHT22;61854;48.510;-2.770;2023-06-19T01:17:22;17.40;99.90
73572;DHT22;61854;48.510;-2.770;2023-06-19T01:19:48;17.40;99.90
73572;DHT22;61854;48.510;-2.770;2023-06-19T01:22:29;17.40;99.90
73572;DHT22;61854;48.510;-2.770;2023-06-19T01:24:54;17.40;99.90
73572;DHT22;61854;48.510;-2.770;2023-06-19T01:27:20;17.40;99.90
73572;DHT22;61854;48.510;-2.770;2023-06-19T01:29:46;17.40;99.90
73572;DHT22;61854;48.510;-2.770;2023-06-19T01:32:13;17.30;99.90
73572;DHT22;61854;48.510;-2.770;2023-06-19T01:34:40;17.30;99.90
73572;DHT22;61854;48.510;-2.770;2023-06-19T01:37:06;17.30;99.90
73572;DHT22;61854;48.510;-2.770;2023-06-19T01:39:32;17.20;99.90
73572;DHT22;61854;48.510;-2.770;2023-06-19T01:41:58;17.20;99.90
73572;DHT22;61854;48.510;-2.770;2023-06-19T01:44:24;17.20;99.90
73572;DHT22;61854;48.510;-2.770;2023-06-19T01:46:50;17.20;99.90
73572;DHT22;61854;48.510;-2.770;2023-06-19T01:49:16;17.20;99.90
73572;DHT22;61854;48.510;-2.770;2023-06-19T01:51:41;17.20;99.90
73572;DHT22;61854;48.510;-2.770;2023-06-19T01:54:07;17.10;99.90
73572;DHT22;61854;48.510;-2.770;2023-06-19T01:56:32;17.10;99.90
73572;DHT22;61854;48.510;-2.770;2023-06-19T01:58:58;17.10;99.90
73572;DHT22;61854;48.510;-2.770;2023-06-19T02:01:23;17.10;99.90
73572;DHT22;61854;48.510;-2.770;2023-06-19T02:03:49;17.10;99.90
73572;DHT22;61854;48.510;-2.770;2023-06-19T02:06:14;17.10;99.90
73572;DHT22;61854;48.510;-2.770;2023-06-19T02:08:40;17.10;99.90
73572;DHT22;61854;48.510;-2.770;2023-06-19T02:11:05;17.10;99.90
73572;DHT22;61854;48.510;-2.770;2023-06-19T02:13:31;17.10;99.90
73572;DHT22;61854;48.510;-2.770;2023-06-19T02:15:56;17.00;99.90
73572;DHT22;61854;48.510;-2.770;2023-06-19T02:18:22;17.00;99.90
73572;DHT22;61854;48.510;-2.770;2023-06-19T02:20:47;17.10;99.90
73572;DHT22;61854;48.510;-2.770;2023-06-19T02:23:13;17.10;99.90
73572;DHT22;61854;48.510;-2.770;2023-06-19T02:25:39;17.10;99.90
73572;DHT22;61854;48.510;-2.770;2023-06-19T02:28:04;17.10;99.90
73572;DHT22;61854;48.510;-2.770;2023-06-19T02:30:30;17.10;99.90
73572;DHT22;61854;48.510;-2.770;2023-06-19T02:32:55;17.10;99.90
73572;DHT22;61854;48.510;-2.770;2023-06-19T02:35:21;17.10;99.90
73572;DHT22;61854;48.510;-2.770;2023-06-19T02:37:46;17.10;99.90
73572;DHT22;61854;48.510;-2.770;2023-06-19T02:40:12;17.10;99.90
73572;DHT22;61854;48.510;-2.770;2023-06-19T02:42:38;17.10;99.90
73572;DHT22;61854;48.510;-2.770;2023-06-19T02:45:04;17.10;99.90
73572;DHT22;61854;48.510;-2.770;2023-06-19T02:47:30;17.10;99.90
73572;DHT22;61854;48.510;-2.770;2023-06-19T02:50:00;17.10;99.90
73572;DHT22;61854;48.510;-2.770;2023-06-19T02:52:26;17.10;99.90
73572;DHT22;61854;48.510;-2.770;2023-06-19T02:54:52;17.10;99.90
73572;DHT22;61854;48.510;-2.770;2023-06-19T02:57:17;17.10;99.90
73572;DHT22;61854;48.510;-2.770;2023-06-19T02:59:43;17.10;99.90
73572;DHT22;61854;48.510;-2.770;2023-06-19T03:02:08;17.10;99.90
73572;DHT22;61854;48.510;-2.770;2023-06-19T03:04:34;17.10;99.90
73572;DHT22;61854;48.510;-2.770;2023-06-19T03:07:02;17.10;99.90
73572;DHT22;61854;48.510;-2.770;2023-06-19T03:09:28;17.10;99.90
73572;DHT22;61854;48.510;-2.770;2023-06-19T03:11:54;17.10;99.90
73572;DHT22;61854;48.510;-2.770;2023-06-19T03:14:20;17.10;99.90
73572;DHT22;61854;48.510;-2.770;2023-06-19T03:16:45;17.00;99.90
73572;DHT22;61854;48.510;-2.770;2023-06-19T03:19:11;17.00;99.90
73572;DHT22;61854;48.510;-2.770;2023-06-19T03:21:36;16.90;99.90
73572;DHT22;61854;48.510;-2.770;2023-06-19T03:24:02;16.90;99.90
73572;DHT22;61854;48.510;-2.770;2023-06-19T03:26:28;16.90;99.90
73572;DHT22;61854;48.510;-2.770;2023-06-19T03:28:53;16.90;99.90
73572;DHT22;61854;48.510;-2.770;2023-06-19T03:31:19;16.90;99.90
73572;DHT22;61854;48.510;-2.770;2023-06-19T03:33:44;16.90;99.90
73572;DHT22;61854;48.510;-2.770;2023-06-19T03:36:10;16.80;99.90
73572;DHT22;61854;48.510;-2.770;2023-06-19T03:38:38;16.80;99.90
73572;DHT22;61854;48.510;-2.770;2023-06-19T03:41:04;16.80;99.90
73572;DHT22;61854;48.510;-2.770;2023-06-19T03:43:29;16.80;99.90
73572;DHT22;61854;48.510;-2.770;2023-06-19T03:45:55;16.80;99.90
73572;DHT22;61854;48.510;-2.770;2023-06-19T03:48:21;16.80;99.90
73572;DHT22;61854;48.510;-2.770;2023-06-19T03:50:46;16.80;99.90
73572;DHT22;61854;48.510;-2.770;2023-06-19T03:53:12;16.80;99.90
73572;DHT22;61854;48.510;-2.770;2023-06-19T03:55:37;16.80;99.90
73572;DHT22;61854;48.510;-2.770;2023-06-19T03:58:03;16.80;99.90
73572;DHT22;61854;48.510;-2.770;2023-06-19T04:00:28;16.80;99.90
73572;DHT22;61854;48.510;-2.770;2023-06-19T04:02:54;16.80;99.90
73572;DHT22;61854;48.510;-2.770;2023-06-19T04:05:19;16.80;99.90
73572;DHT22;61854;48.510;-2.770;2023-06-19T04:07:45;16.80;99.90
73572;DHT22;61854;48.510;-2.770;2023-06-19T04:10:10;16.80;99.90
73572;DHT22;61854;48.510;-2.770;2023-06-19T04:12:39;16.80;99.90
73572;DHT22;61854;48.510;-2.770;2023-06-19T04:15:06;16.80;99.90
73572;DHT22;61854;48.510;-2.770;2023-06-19T04:17:31;16.80;99.90
73572;DHT22;61854;48.510;-2.770;2023-06-19T04:19:57;16.80;99.90
73572;DHT22;61854;48.510;-2.770;2023-06-19T04:22:22;16.90;99.90
73572;DHT22;61854;48.510;-2.770;2023-06-19T04:24:48;16.90;99.90
73572;DHT22;61854;48.510;-2.770;2023-06-19T04:27:13;16.90;99.90
73572;DHT22;61854;48.510;-2.770;2023-06-19T04:29:39;16.90;99.90
73572;DHT22;61854;48.510;-2.770;2023-06-19T04:32:04;16.90;99.90
73572;DHT22;61854;48.510;-2.770;2023-06-19T04:34:36;16.90;99.90
73572;DHT22;61854;48.510;-2.770;2023-06-19T04:37:02;16.90;99.90
73572;DHT22;61854;48.510;-2.770;2023-06-19T04:39:27;16.90;99.90
73572;DHT22;61854;48.510;-2.770;2023-06-19T04:41:53;16.90;99.90
73572;DHT22;61854;48.510;-2.770;2023-06-19T04:44:18;16.90;99.90
73572;DHT22;61854;48.510;-2.770;2023-06-19T04:46:44;17.00;99.90
73572;DHT22;61854;48.510;-2.770;2023-06-19T04:49:09;17.00;99.90
73572;DHT22;61854;48.510;-2.770;2023-06-19T04:51:35;17.00;99.90
73572;DHT22;61854;48.510;-2.770;2023-06-19T04:54:01;17.00;99.90
73572;DHT22;61854;48.510;-2.770;2023-06-19T04:56:27;17.10;99.90
73572;DHT22;61854;48.510;-2.770;2023-06-19T04:58:52;17.10;99.90
73572;DHT22;61854;48.510;-2.770;2023-06-19T05:01:21;17.10;99.90
73572;DHT22;61854;48.510;-2.770;2023-06-19T05:03:53;17.20;99.90
73572;DHT22;61854;48.510;-2.770;2023-06-19T05:06:19;17.30;99.90
73572;DHT22;61854;48.510;-2.770;2023-06-19T05:08:45;17.20;99.90
73572;DHT22;61854;48.510;-2.770;2023-06-19T05:11:10;17.30;99.90
73572;DHT22;61854;48.510;-2.770;2023-06-19T05:13:36;17.40;99.90
73572;DHT22;61854;48.510;-2.770;2023-06-19T05:16:01;17.50;99.90
73572;DHT22;61854;48.510;-2.770;2023-06-19T05:18:27;17.50;99.90
73572;DHT22;61854;48.510;-2.770;2023-06-19T05:20:52;17.60;99.90
73572;DHT22;61854;48.510;-2.770;2023-06-19T05:23:18;17.80;99.90
73572;DHT22;61854;48.510;-2.770;2023-06-19T05:25:43;18.00;99.90
73572;DHT22;61854;48.510;-2.770;2023-06-19T05:28:09;18.10;99.90
73572;DHT22;61854;48.510;-2.770;2023-06-19T05:30:34;18.20;99.90
73572;DHT22;61854;48.510;-2.770;2023-06-19T05:33:01;18.30;99.90
73572;DHT22;61854;48.510;-2.770;2023-06-19T05:35:26;18.50;99.90
73572;DHT22;61854;48.510;-2.770;2023-06-19T05:37:52;18.70;99.90
73572;DHT22;61854;48.510;-2.770;2023-06-19T05:40:17;18.80;98.90
73572;DHT22;61854;48.510;-2.770;2023-06-19T05:42:43;19.00;98.90
73572;DHT22;61854;48.510;-2.770;2023-06-19T05:45:08;19.20;96.50
73572;DHT22;61854;48.510;-2.770;2023-06-19T05:47:34;19.10;96.80
73572;DHT22;61854;48.510;-2.770;2023-06-19T05:50:00;19.10;96.70
73572;DHT22;61854;48.510;-2.770;2023-06-19T05:52:25;19.10;96.50
73572;DHT22;61854;48.510;-2.770;2023-06-19T05:54:51;19.10;96.70
73572;DHT22;61854;48.510;-2.770;2023-06-19T05:57:18;19.10;96.90
73572;DHT22;61854;48.510;-2.770;2023-06-19T05:59:49;19.20;96.30
73572;DHT22;61854;48.510;-2.770;2023-06-19T06:02:15;19.20;96.60
73572;DHT22;61854;48.510;-2.770;2023-06-19T06:04:41;19.20;96.20
73572;DHT22;61854;48.510;-2.770;2023-06-19T06:07:06;19.20;95.70
73572;DHT22;61854;48.510;-2.770;2023-06-19T06:09:32;19.10;95.80
73572;DHT22;61854;48.510;-2.770;2023-06-19T06:11:58;19.10;95.90
73572;DHT22;61854;48.510;-2.770;2023-06-19T06:14:24;19.10;95.80
73572;DHT22;61854;48.510;-2.770;2023-06-19T06:16:50;19.00;96.00
73572;DHT22;61854;48.510;-2.770;2023-06-19T06:19:15;19.00;96.40
73572;DHT22;61854;48.510;-2.770;2023-06-19T06:21:41;19.00;96.60
73572;DHT22;61854;48.510;-2.770;2023-06-19T06:24:06;19.00;96.20
73572;DHT22;61854;48.510;-2.770;2023-06-19T06:26:32;19.00;95.90
73572;DHT22;61854;48.510;-2.770;2023-06-19T06:28:58;19.10;95.60
73572;DHT22;61854;48.510;-2.770;2023-06-19T06:31:24;19.00;95.50
73572;DHT22;61854;48.510;-2.770;2023-06-19T06:33:49;19.00;95.70
73572;DHT22;61854;48.510;-2.770;2023-06-19T06:36:15;18.90;95.90
73572;DHT22;61854;48.510;-2.770;2023-06-19T06:38:41;19.00;96.00
73572;DHT22;61854;48.510;-2.770;2023-06-19T06:41:06;18.90;96.00
73572;DHT22;61854;48.510;-2.770;2023-06-19T06:43:32;18.90;96.00
73572;DHT22;61854;48.510;-2.770;2023-06-19T06:45:58;18.90;96.00
73572;DHT22;61854;48.510;-2.770;2023-06-19T06:48:23;18.90;96.10
73572;DHT22;61854;48.510;-2.770;2023-06-19T06:50:49;18.90;96.10
73572;DHT22;61854;48.510;-2.770;2023-06-19T06:53:15;18.90;96.40
73572;DHT22;61854;48.510;-2.770;2023-06-19T06:55:40;18.90;96.10
73572;DHT22;61854;48.510;-2.770;2023-06-19T06:58:06;19.00;96.10
73572;DHT22;61854;48.510;-2.770;2023-06-19T07:00:32;19.10;95.90
73572;DHT22;61854;48.510;-2.770;2023-06-19T07:02:57;19.10;95.80
73572;DHT22;61854;48.510;-2.770;2023-06-19T07:05:23;19.10;96.00
73572;DHT22;61854;48.510;-2.770;2023-06-19T07:07:49;19.20;95.90
73572;DHT22;61854;48.510;-2.770;2023-06-19T07:10:15;19.30;95.40
73572;DHT22;61854;48.510;-2.770;2023-06-19T07:12:45;19.30;95.00
73572;DHT22;61854;48.510;-2.770;2023-06-19T07:15:11;19.40;94.90
73572;DHT22;61854;48.510;-2.770;2023-06-19T07:17:37;19.50;95.10
73572;DHT22;61854;48.510;-2.770;2023-06-19T07:20:02;19.50;94.80
73572;DHT22;61854;48.510;-2.770;2023-06-19T07:22:28;19.60;94.30
73572;DHT22;61854;48.510;-2.770;2023-06-19T07:24:54;19.60;94.20
73572;DHT22;61854;48.510;-2.770;2023-06-19T07:27:20;19.70;94.00
73572;DHT22;61854;48.510;-2.770;2023-06-19T07:29:45;19.80;93.70
73572;DHT22;61854;48.510;-2.770;2023-06-19T07:32:11;19.80;93.60
73572;DHT22;61854;48.510;-2.770;2023-06-19T07:34:37;20.00;93.90
73572;DHT22;61854;48.510;-2.770;2023-06-19T07:37:03;20.00;93.50
73572;DHT22;61854;48.510;-2.770;2023-06-19T07:39:28;20.10;92.80
73572;DHT22;61854;48.510;-2.770;2023-06-19T07:41:54;20.20;92.20
73572;DHT22;61854;48.510;-2.770;2023-06-19T07:44:19;20.20;92.60
73572;DHT22;61854;48.510;-2.770;2023-06-19T07:46:46;20.20;92.50
73572;DHT22;61854;48.510;-2.770;2023-06-19T07:49:12;20.10;92.90
73572;DHT22;61854;48.510;-2.770;2023-06-19T07:51:37;20.00;92.80
73572;DHT22;61854;48.510;-2.770;2023-06-19T07:54:03;20.00;93.60
73572;DHT22;61854;48.510;-2.770;2023-06-19T07:56:28;19.90;93.70
73572;DHT22;61854;48.510;-2.770;2023-06-19T07:58:54;20.00;93.20
73572;DHT22;61854;48.510;-2.770;2023-06-19T08:01:20;20.10;93.20
73572;DHT22;61854;48.510;-2.770;2023-06-19T08:03:45;20.20;92.90
73572;DHT22;61854;48.510;-2.770;2023-06-19T08:06:11;20.30;92.40
73572;DHT22;61854;48.510;-2.770;2023-06-19T08:08:37;20.40;91.80
73572;DHT22;61854;48.510;-2.770;2023-06-19T08:11:02;20.30;91.80
73572;DHT22;61854;48.510;-2.770;2023-06-19T08:13:28;20.30;91.60
73572;DHT22;61854;48.510;-2.770;2023-06-19T08:15:53;20.30;91.60
73572;DHT22;61854;48.510;-2.770;2023-06-19T08:18:19;20.30;91.30
73572;DHT22;61854;48.510;-2.770;2023-06-19T08:20:45;20.40;91.70
73572;DHT22;61854;48.510;-2.770;2023-06-19T08:23:10;20.30;92.00
73572;DHT22;61854;48.510;-2.770;2023-06-19T08:25:36;20.30;90.50
73572;DHT22;61854;48.510;-2.770;2023-06-19T08:28:02;20.30;90.80
73572;DHT22;61854;48.510;-2.770;2023-06-19T08:30:27;20.30;91.20
73572;DHT22;61854;48.510;-2.770;2023-06-19T08:32:53;20.40;90.80
73572;DHT22;61854;48.510;-2.770;2023-06-19T08:35:18;20.30;90.30
73572;DHT22;61854;48.510;-2.770;2023-06-19T08:37:44;20.40;89.10
73572;DHT22;61854;48.510;-2.770;2023-06-19T08:40:11;20.40;89.90
73572;DHT22;61854;48.510;-2.770;2023-06-19T08:42:37;20.50;88.60
73572;DHT22;61854;48.510;-2.770;2023-06-19T08:45:05;20.50;87.30
73572;DHT22;61854;48.510;-2.770;2023-06-19T08:47:33;20.50;86.90
73572;DHT22;61854;48.510;-2.770;2023-06-19T08:49:59;20.50;88.90
73572;DHT22;61854;48.510;-2.770;2023-06-19T08:52:25;20.50;87.60
73572;DHT22;61854;48.510;-2.770;2023-06-19T08:54:50;20.60;86.40
73572;DHT22;61854;48.510;-2.770;2023-06-19T08:57:16;20.50;85.90
73572;DHT22;61854;48.510;-2.770;2023-06-19T08:59:50;20.50;87.10
73572;DHT22;61854;48.510;-2.770;2023-06-19T09:02:16;20.40;87.20
73572;DHT22;61854;48.510;-2.770;2023-06-19T09:04:42;20.50;86.20
73572;DHT22;61854;48.510;-2.770;2023-06-19T09:07:08;20.50;87.00
73572;DHT22;61854;48.510;-2.770;2023-06-19T09:09:33;20.60;87.10
73572;DHT22;61854;48.510;-2.770;2023-06-19T09:12:03;20.60;86.90
73572;DHT22;61854;48.510;-2.770;2023-06-19T09:14:32;20.70;87.20
73572;DHT22;61854;48.510;-2.770;2023-06-19T09:16:59;20.90;88.10
73572;DHT22;61854;48.510;-2.770;2023-06-19T09:19:24;20.90;87.20
73572;DHT22;61854;48.510;-2.770;2023-06-19T09:21:50;21.00;86.30
73572;DHT22;61854;48.510;-2.770;2023-06-19T09:24:15;21.10;88.20
73572;DHT22;61854;48.510;-2.770;2023-06-19T09:26:41;21.20;84.30
73572;DHT22;61854;48.510;-2.770;2023-06-19T09:29:10;21.20;80.80
73572;DHT22;61854;48.510;-2.770;2023-06-19T09:31:35;21.20;81.40
73572;DHT22;61854;48.510;-2.770;2023-06-19T09:34:05;21.20;81.00
73572;DHT22;61854;48.510;-2.770;2023-06-19T09:36:31;21.20;81.50
73572;DHT22;61854;48.510;-2.770;2023-06-19T09:38:57;21.20;78.80
73572;DHT22;61854;48.510;-2.770;2023-06-19T09:41:24;21.30;76.60
73572;DHT22;61854;48.510;-2.770;2023-06-19T09:43:51;21.30;79.20
73572;DHT22;61854;48.510;-2.770;2023-06-19T09:46:20;21.30;78.20
73572;DHT22;61854;48.510;-2.770;2023-06-19T09:48:47;21.40;79.60
73572;DHT22;61854;48.510;-2.770;2023-06-19T09:51:23;21.40;78.80
73572;DHT22;61854;48.510;-2.770;2023-06-19T09:53:51;21.40;77.00
73572;DHT22;61854;48.510;-2.770;2023-06-19T09:56:16;21.50;76.60
73572;DHT22;61854;48.510;-2.770;2023-06-19T09:58:47;21.50;77.10
73572;DHT22;61854;48.510;-2.770;2023-06-19T10:01:14;21.60;77.50
73572;DHT22;61854;48.510;-2.770;2023-06-19T10:03:44;21.70;79.60
73572;DHT22;61854;48.510;-2.770;2023-06-19T10:06:13;21.80;79.10
73572;DHT22;61854;48.510;-2.770;2023-06-19T10:08:45;22.00;78.30
73572;DHT22;61854;48.510;-2.770;2023-06-19T10:11:11;22.10;78.40
73572;DHT22;61854;48.510;-2.770;2023-06-19T10:13:38;22.20;74.40
73572;DHT22;61854;48.510;-2.770;2023-06-19T10:16:05;22.40;73.80
73572;DHT22;61854;48.510;-2.770;2023-06-19T10:18:44;22.40;72.20
73572;DHT22;61854;48.510;-2.770;2023-06-19T10:21:20;22.30;74.70
73572;DHT22;61854;48.510;-2.770;2023-06-19T10:23:56;22.20;75.70
73572;DHT22;61854;48.510;-2.770;2023-06-19T10:26:34;22.10;75.60
73572;DHT22;61854;48.510;-2.770;2023-06-19T10:29:00;22.10;76.60
73572;DHT22;61854;48.510;-2.770;2023-06-19T10:31:25;22.10;76.00
73572;DHT22;61854;48.510;-2.770;2023-06-19T10:33:53;22.10;75.20
73572;DHT22;61854;48.510;-2.770;2023-06-19T10:36:20;22.20;75.80
73572;DHT22;61854;48.510;-2.770;2023-06-19T10:38:47;22.20;76.50
73572;DHT22;61854;48.510;-2.770;2023-06-19T10:41:16;22.40;77.70
73572;DHT22;61854;48.510;-2.770;2023-06-19T10:43:51;22.40;77.10
73572;DHT22;61854;48.510;-2.770;2023-06-19T10:46:17;22.50;77.40
73572;DHT22;61854;48.510;-2.770;2023-06-19T10:48:42;22.50;77.00
73572;DHT22;61854;48.510;-2.770;2023-06-19T10:51:08;22.50;76.60
73572;DHT22;61854;48.510;-2.770;2023-06-19T10:53:34;22.50;76.70
73572;DHT22;61854;48.510;-2.770;2023-06-19T10:56:00;22.60;75.20
73572;DHT22;61854;48.510;-2.770;2023-06-19T10:58:26;22.60;75.80
73572;DHT22;61854;48.510;-2.770;2023-06-19T11:00:53;22.60;75.60
73572;DHT22;61854;48.510;-2.770;2023-06-19T11:03:19;22.60;75.00
73572;DHT22;61854;48.510;-2.770;2023-06-19T11:05:45;22.60;75.00
73572;DHT22;61854;48.510;-2.770;2023-06-19T11:08:10;22.50;76.70
73572;DHT22;61854;48.510;-2.770;2023-06-19T11:10:41;22.60;73.20
73572;DHT22;61854;48.510;-2.770;2023-06-19T11:13:07;22.60;74.60
73572;DHT22;61854;48.510;-2.770;2023-06-19T11:15:38;22.60;73.40
73572;DHT22;61854;48.510;-2.770;2023-06-19T11:18:04;22.60;73.30
73572;DHT22;61854;48.510;-2.770;2023-06-19T11:20:30;22.60;73.90
73572;DHT22;61854;48.510;-2.770;2023-06-19T11:22:56;22.50;75.10
73572;DHT22;61854;48.510;-2.770;2023-06-19T11:25:22;22.50;75.00
73572;DHT22;61854;48.510;-2.770;2023-06-19T11:27:48;22.70;74.50
73572;DHT22;61854;48.510;-2.770;2023-06-19T11:32:16;23.70;71.80
73572;DHT22;61854;48.510;-2.770;2023-06-19T11:34:43;24.00;70.20
73572;DHT22;61854;48.510;-2.770;2023-06-19T11:37:17;23.90;65.60
73572;DHT22;61854;48.510;-2.770;2023-06-19T11:39:48;23.80;64.60
73572;DHT22;61854;48.510;-2.770;2023-06-19T11:42:14;23.70;68.00
73572;DHT22;61854;48.510;-2.770;2023-06-19T11:45:02;23.80;68.50
73572;DHT22;61854;48.510;-2.770;2023-06-19T11:47:31;23.60;66.10
73572;DHT22;61854;48.510;-2.770;2023-06-19T11:49:57;23.70;69.70
73572;DHT22;61854;48.510;-2.770;2023-06-19T11:52:23;23.90;67.80
73572;DHT22;61854;48.510;-2.770;2023-06-19T11:54:49;23.90;65.50
73572;DHT22;61854;48.510;-2.770;2023-06-19T11:57:15;23.90;64.80
73572;DHT22;61854;48.510;-2.770;2023-06-19T11:59:41;23.90;64.50
73572;DHT22;61854;48.510;-2.770;2023-06-19T12:02:08;23.80;65.80
73572;DHT22;61854;48.510;-2.770;2023-06-19T12:04:34;24.00;66.20
73572;DHT22;61854;48.510;-2.770;2023-06-19T12:07:00;24.30;64.60
73572;DHT22;61854;48.510;-2.770;2023-06-19T12:09:26;24.50;64.50
73572;DHT22;61854;48.510;-2.770;2023-06-19T12:11:53;24.80;63.10
73572;DHT22;61854;48.510;-2.770;2023-06-19T12:14:19;24.80;62.30
73572;DHT22;61854;48.510;-2.770;2023-06-19T12:16:48;24.90;59.00
73572;DHT22;61854;48.510;-2.770;2023-06-19T12:19:14;25.00;58.10
73572;DHT22;61854;48.510;-2.770;2023-06-19T12:21:40;25.10;59.90
73572;DHT22;61854;48.510;-2.770;2023-06-19T12:24:06;25.30;62.60
73572;DHT22;61854;48.510;-2.770;2023-06-19T12:26:33;25.40;62.10
73572;DHT22;61854;48.510;-2.770;2023-06-19T12:29:07;25.10;59.50
73572;DHT22;61854;48.510;-2.770;2023-06-19T12:31:34;25.20;62.40
73572;DHT22;61854;48.510;-2.770;2023-06-19T12:34:01;25.20;58.20
73572;DHT22;61854;48.510;-2.770;2023-06-19T12:36:27;25.00;60.90
73572;DHT22;61854;48.510;-2.770;2023-06-19T12:38:53;25.00;58.60
73572;DHT22;61854;48.510;-2.770;2023-06-19T12:41:22;24.90;61.80
73572;DHT22;61854;48.510;-2.770;2023-06-19T12:43:48;24.80;59.90
73572;DHT22;61854;48.510;-2.770;2023-06-19T12:46:13;24.80;61.10
73572;DHT22;61854;48.510;-2.770;2023-06-19T12:48:40;24.80;62.80
73572;DHT22;61854;48.510;-2.770;2023-06-19T12:51:06;24.80;60.90
73572;DHT22;61854;48.510;-2.770;2023-06-19T12:53:32;24.90;61.60
73572;DHT22;61854;48.510;-2.770;2023-06-19T12:55:58;25.30;62.90
73572;DHT22;61854;48.510;-2.770;2023-06-19T12:58:24;25.40;59.00
73572;DHT22;61854;48.510;-2.770;2023-06-19T13:00:50;25.60;61.00
73572;DHT22;61854;48.510;-2.770;2023-06-19T13:03:16;25.50;58.50
73572;DHT22;61854;48.510;-2.770;2023-06-19T13:05:41;25.60;56.90
73572;DHT22;61854;48.510;-2.770;2023-06-19T13:08:07;25.50;57.80
73572;DHT22;61854;48.510;-2.770;2023-06-19T13:10:32;25.50;58.50
73572;DHT22;61854;48.510;-2.770;2023-06-19T13:12:58;25.60;59.80
73572;DHT22;61854;48.510;-2.770;2023-06-19T13:15:24;25.50;58.50
73572;DHT22;61854;48.510;-2.770;2023-06-19T13:17:50;25.50;59.90
73572;DHT22;61854;48.510;-2.770;2023-06-19T13:20:16;25.20;58.00
73572;DHT22;61854;48.510;-2.770;2023-06-19T13:22:42;25.20;58.00
73572;DHT22;61854;48.510;-2.770;2023-06-19T13:25:07;25.50;60.20
73572;DHT22;61854;48.510;-2.770;2023-06-19T13:27:33;25.90;59.40
73572;DHT22;61854;48.510;-2.770;2023-06-19T13:30:00;26.60;57.70
73572;DHT22;61854;48.510;-2.770;2023-06-19T13:32:26;27.20;51.10
73572;DHT22;61854;48.510;-2.770;2023-06-19T13:34:52;27.90;53.30
73572;DHT22;61854;48.510;-2.770;2023-06-19T13:37:19;28.50;47.60
73572;DHT22;61854;48.510;-2.770;2023-06-19T13:39:45;28.20;43.70
73572;DHT22;61854;48.510;-2.770;2023-06-19T13:42:11;28.30;43.50
73572;DHT22;61854;48.510;-2.770;2023-06-19T13:44:37;28.80;44.20
73572;DHT22;61854;48.510;-2.770;2023-06-19T13:47:03;29.20;43.90
73572;DHT22;61854;48.510;-2.770;2023-06-19T13:49:29;29.80;42.10
73572;DHT22;61854;48.510;-2.770;2023-06-19T13:51:55;29.40;44.00
73572;DHT22;61854;48.510;-2.770;2023-06-19T13:54:21;28.70;42.90
73572;DHT22;61854;48.510;-2.770;2023-06-19T13:56:48;28.60;42.90
73572;DHT22;61854;48.510;-2.770;2023-06-19T13:59:14;28.90;44.10
73572;DHT22;61854;48.510;-2.770;2023-06-19T14:01:40;28.90;42.10
73572;DHT22;61854;48.510;-2.770;2023-06-19T14:04:07;29.50;41.80
73572;DHT22;61854;48.510;-2.770;2023-06-19T14:06:34;29.30;40.80
73572;DHT22;61854;48.510;-2.770;2023-06-19T14:09:00;29.30;42.20
73572;DHT22;61854;48.510;-2.770;2023-06-19T14:11:25;28.80;41.00
73572;DHT22;61854;48.510;-2.770;2023-06-19T14:13:51;28.60;43.50
73572;DHT22;61854;48.510;-2.770;2023-06-19T14:16:17;28.60;40.80
73572;DHT22;61854;48.510;-2.770;2023-06-19T14:18:42;28.60;42.60
73572;DHT22;61854;48.510;-2.770;2023-06-19T14:21:08;28.50;43.40
73572;DHT22;61854;48.510;-2.770;2023-06-19T14:23:34;28.20;44.80
73572;DHT22;61854;48.510;-2.770;2023-06-19T14:26:04;28.40;44.10
73572;DHT22;61854;48.510;-2.770;2023-06-19T14:28:30;28.90;44.60
73572;DHT22;61854;48.510;-2.770;2023-06-19T14:30:55;29.40;41.70
73572;DHT22;61854;48.510;-2.770;2023-06-19T14:33:21;29.20;41.80
73572;DHT22;61854;48.510;-2.770;2023-06-19T14:35:47;29.00;41.60
73572;DHT22;61854;48.510;-2.770;2023-06-19T14:38:13;28.90;42.70
73572;DHT22;61854;48.510;-2.770;2023-06-19T14:40:43;28.50;44.00
73572;DHT22;61854;48.510;-2.770;2023-06-19T14:43:08;28.10;46.10
73572;DHT22;61854;48.510;-2.770;2023-06-19T14:45:35;27.90;47.90
73572;DHT22;61854;48.510;-2.770;2023-06-19T14:48:01;27.90;47.90
73572;DHT22;61854;48.510;-2.770;2023-06-19T14:50:27;27.50;48.20
73572;DHT22;61854;48.510;-2.770;2023-06-19T14:52:53;27.90;47.00
73572;DHT22;61854;48.510;-2.770;2023-06-19T14:55:19;27.80;46.10
73572;DHT22;61854;48.510;-2.770;2023-06-19T14:57:44;27.40;48.30
73572;DHT22;61854;48.510;-2.770;2023-06-19T15:00:10;27.20;47.40
73572;DHT22;61854;48.510;-2.770;2023-06-19T15:02:36;27.10;48.90
73572;DHT22;61854;48.510;-2.770;2023-06-19T15:05:02;26.90;49.70
73572;DHT22;61854;48.510;-2.770;2023-06-19T15:07:27;26.70;50.40
73572;DHT22;61854;48.510;-2.770;2023-06-19T15:09:53;26.50;51.40
73572;DHT22;61854;48.510;-2.770;2023-06-19T15:12:19;26.40;52.20